createdAt,value
2017-09-14T00:00:18.595Z,20.50
2017-09-14T00:02:46.979Z,20.50
2017-09-14T00:05:14.478Z,20.50
2017-09-14T00:07:42.764Z,20.60
2017-09-14T00:10:10.269Z,20.60
2017-09-14T00:12:37.791Z,20.60
2017-09-14T00:15:06.123Z,20.60
2017-09-14T00:17:33.711Z,20.60
2017-09-14T00:20:02.207Z,20.60
2017-09-14T00:22:29.730Z,20.70
2017-09-14T00:24:57.319Z,20.70
2017-09-14T00:27:24.878Z,20.80
2017-09-14T00:29:52.379Z,20.70
2017-09-14T00:32:19.905Z,20.70
2017-09-14T00:34:47.535Z,20.70
2017-09-14T00:37:15.834Z,20.70
2017-09-14T00:39:43.372Z,20.70
2017-09-14T00:42:11.735Z,20.60
2017-09-14T00:44:39.326Z,20.60
2017-09-14T00:47:06.887Z,20.70
2017-09-14T00:49:34.854Z,20.80
2017-09-14T00:52:02.423Z,20.80
2017-09-14T00:54:29.978Z,20.90
2017-09-14T00:56:57.580Z,20.90
2017-09-14T00:59:25.087Z,20.90
2017-09-14T01:01:52.655Z,20.90
2017-09-14T01:04:20.167Z,20.80
2017-09-14T01:06:47.776Z,20.80
2017-09-14T01:09:15.279Z,20.80
2017-09-14T01:11:42.806Z,20.80
2017-09-14T01:14:28.047Z,20.80
2017-09-14T01:16:56.330Z,20.80
2017-09-14T01:19:25.303Z,20.80
2017-09-14T01:21:53.588Z,20.80
2017-09-14T01:24:21.859Z,20.80
2017-09-14T01:26:50.144Z,20.80
2017-09-14T01:29:18.487Z,20.80
2017-09-14T01:31:46.095Z,20.80
2017-09-14T01:34:13.649Z,20.80
2017-09-14T01:36:41.155Z,20.80
2017-09-14T01:39:08.767Z,20.80
2017-09-14T01:41:36.264Z,20.80
2017-09-14T01:44:03.779Z,20.80
2017-09-14T01:46:32.058Z,20.70
2017-09-14T01:48:59.580Z,20.70
2017-09-14T01:51:27.174Z,20.70
2017-09-14T01:53:54.691Z,20.70
2017-09-14T01:56:22.196Z,20.30
2017-09-14T01:58:49.719Z,19.60
2017-09-14T02:01:17.223Z,18.90
2017-09-14T02:03:44.749Z,18.40
2017-09-14T02:06:13.100Z,17.70
2017-09-14T02:08:40.619Z,17.70
2017-09-14T02:11:08.675Z,17.60
2017-09-14T02:13:36.230Z,17.40
2017-09-14T02:16:03.732Z,17.10
2017-09-14T02:18:31.245Z,17.00
2017-09-14T02:20:58.807Z,16.80
2017-09-14T02:23:26.467Z,16.60
2017-09-14T02:25:54.031Z,16.40
2017-09-14T02:28:21.592Z,16.40
2017-09-14T02:30:49.099Z,16.30
2017-09-14T02:33:16.600Z,16.00
2017-09-14T02:35:44.954Z,16.00
2017-09-14T02:38:12.455Z,15.90
2017-09-14T02:40:40.969Z,15.70
2017-09-14T02:43:08.583Z,15.70
2017-09-14T02:45:36.951Z,15.60
2017-09-14T02:48:04.524Z,15.60
2017-09-14T02:50:32.096Z,15.50
2017-09-14T02:52:59.599Z,15.40
2017-09-14T02:55:27.121Z,15.30
2017-09-14T02:57:54.626Z,15.10
2017-09-14T03:00:22.927Z,14.90
2017-09-14T03:02:50.514Z,14.90
2017-09-14T03:05:18.058Z,15.00
2017-09-14T03:07:45.559Z,14.90
2017-09-14T03:10:13.084Z,14.80
2017-09-14T03:12:40.626Z,14.70
2017-09-14T03:15:08.142Z,14.70
2017-09-14T03:17:36.455Z,14.70
2017-09-14T03:20:04.014Z,14.60
2017-09-14T03:22:32.343Z,14.70
2017-09-14T03:24:59.847Z,14.60
2017-09-14T03:27:27.408Z,14.60
2017-09-14T03:29:54.979Z,14.50
2017-09-14T03:32:22.503Z,14.40
2017-09-14T03:34:50.771Z,14.30
2017-09-14T03:37:18.360Z,14.30
2017-09-14T03:39:45.915Z,14.10
2017-09-14T03:42:13.427Z,14.10
2017-09-14T03:44:41.040Z,14.00
2017-09-14T03:47:08.590Z,14.00
2017-09-14T03:49:36.091Z,13.90
2017-09-14T03:52:03.726Z,13.80
2017-09-14T03:54:31.231Z,13.70
2017-09-14T03:56:58.755Z,13.60
2017-09-14T03:59:26.414Z,13.50
2017-09-14T04:01:53.952Z,13.50
2017-09-14T04:04:21.503Z,13.50
2017-09-14T04:06:49.688Z,13.30
2017-09-14T04:09:17.195Z,13.30
2017-09-14T04:11:44.716Z,13.20
2017-09-14T04:14:12.261Z,13.20
2017-09-14T04:16:39.814Z,13.20
2017-09-14T04:19:08.036Z,13.10
2017-09-14T04:21:35.562Z,13.00
2017-09-14T04:24:03.111Z,13.00
2017-09-14T04:26:30.658Z,13.00
2017-09-14T04:28:58.155Z,12.90
2017-09-14T04:31:25.650Z,12.90
2017-09-14T04:33:53.167Z,12.80
2017-09-14T04:36:20.698Z,12.80
2017-09-14T04:38:48.255Z,12.80
2017-09-14T04:41:15.759Z,12.80
2017-09-14T04:43:43.276Z,12.80
2017-09-14T04:46:10.835Z,12.90
2017-09-14T04:48:38.391Z,12.90
2017-09-14T04:51:06.465Z,13.00
2017-09-14T04:53:33.979Z,12.90
2017-09-14T04:56:02.196Z,12.90
2017-09-14T04:58:29.720Z,12.90
2017-09-14T05:00:57.323Z,12.90
2017-09-14T05:03:24.866Z,12.90
2017-09-14T05:05:52.423Z,12.90
2017-09-14T05:08:19.988Z,12.80
2017-09-14T05:10:48.230Z,12.80
2017-09-14T05:13:15.756Z,12.70
2017-09-14T05:15:43.259Z,12.80
2017-09-14T05:18:11.544Z,12.80
2017-09-14T05:20:39.831Z,12.80
2017-09-14T05:23:07.486Z,12.80
2017-09-14T05:25:35.030Z,12.80
2017-09-14T05:28:03.327Z,12.80
2017-09-14T05:30:30.831Z,12.80
2017-09-14T05:32:58.340Z,12.80
2017-09-14T05:35:25.855Z,12.80
2017-09-14T05:37:53.460Z,12.80
2017-09-14T05:40:20.979Z,12.90
2017-09-14T05:42:48.584Z,13.00
2017-09-14T05:45:16.135Z,13.00
2017-09-14T05:47:43.795Z,13.10
2017-09-14T05:50:12.175Z,13.10
2017-09-14T05:52:39.735Z,13.00
2017-09-14T05:55:07.256Z,13.10
2017-09-14T05:57:34.851Z,13.10
2017-09-14T06:00:02.371Z,13.10
2017-09-14T06:02:30.883Z,13.20
2017-09-14T06:04:59.271Z,13.20
2017-09-14T06:07:26.775Z,13.10
2017-09-14T06:09:54.387Z,13.10
2017-09-14T06:12:22.622Z,13.00
2017-09-14T06:14:50.143Z,13.10
2017-09-14T06:17:17.898Z,13.10
2017-09-14T06:19:45.439Z,13.10
2017-09-14T06:22:12.938Z,13.20
2017-09-14T06:24:40.459Z,13.20
2017-09-14T06:27:08.015Z,13.20
2017-09-14T06:29:35.530Z,13.10
2017-09-14T06:32:03.035Z,13.10
2017-09-14T06:34:31.391Z,13.00
2017-09-14T06:37:00.503Z,13.00
2017-09-14T06:39:28.901Z,13.00
2017-09-14T06:41:56.447Z,13.00
2017-09-14T06:44:23.952Z,13.10
2017-09-14T06:46:51.583Z,13.10
2017-09-14T06:49:19.807Z,13.10
2017-09-14T06:51:47.332Z,13.10
2017-09-14T06:54:14.851Z,13.00
2017-09-14T06:56:42.407Z,13.00
2017-09-14T06:59:10.642Z,13.00
2017-09-14T07:01:38.164Z,13.00
2017-09-14T07:04:06.483Z,13.00
2017-09-14T07:06:34.812Z,13.10
2017-09-14T07:09:02.312Z,13.00
2017-09-14T07:11:29.919Z,13.00
2017-09-14T07:13:57.479Z,13.00
2017-09-14T07:16:25.030Z,13.10
2017-09-14T07:18:52.630Z,13.00
2017-09-14T07:21:20.260Z,13.00
2017-09-14T07:23:48.532Z,13.00
2017-09-14T07:26:16.092Z,12.90
2017-09-14T07:28:43.596Z,12.80
2017-09-14T07:31:11.094Z,12.80
2017-09-14T07:33:38.618Z,12.80
2017-09-14T07:36:07.036Z,12.70
2017-09-14T07:38:34.707Z,12.60
2017-09-14T07:41:03.662Z,12.60
2017-09-14T07:43:31.183Z,12.50
2017-09-14T07:45:58.896Z,12.40
2017-09-14T07:48:27.394Z,12.50
2017-09-14T07:50:54.951Z,12.50
2017-09-14T07:53:22.510Z,12.50
2017-09-14T07:55:50.016Z,12.40
2017-09-14T07:58:17.638Z,12.40
2017-09-14T08:00:45.702Z,12.50
2017-09-14T08:03:13.991Z,12.50
2017-09-14T08:05:41.695Z,12.50
2017-09-14T08:08:10.019Z,12.60
2017-09-14T08:10:37.575Z,12.70
2017-09-14T08:13:05.912Z,12.70
2017-09-14T08:15:33.414Z,12.80
2017-09-14T08:18:01.747Z,12.80
2017-09-14T08:20:29.956Z,12.80
2017-09-14T08:22:57.472Z,12.90
2017-09-14T08:25:25.078Z,12.90
2017-09-14T08:27:52.638Z,12.80
2017-09-14T08:30:20.852Z,12.80
2017-09-14T08:32:48.579Z,12.70
2017-09-14T08:35:16.078Z,12.60
2017-09-14T08:37:43.599Z,12.60
2017-09-14T08:40:11.252Z,12.50
2017-09-14T08:42:38.766Z,12.50
2017-09-14T08:45:06.266Z,12.50
2017-09-14T08:47:34.627Z,12.40
2017-09-14T08:50:02.890Z,12.20
2017-09-14T08:52:30.407Z,12.20
2017-09-14T08:54:58.142Z,12.20
2017-09-14T08:57:25.708Z,12.20
2017-09-14T08:59:53.208Z,12.20
2017-09-14T09:02:20.852Z,12.10
2017-09-14T09:04:48.354Z,12.10
2017-09-14T09:07:16.650Z,12.10
2017-09-14T09:09:44.927Z,12.00
2017-09-14T09:12:12.447Z,12.00
2017-09-14T09:14:40.043Z,12.00
2017-09-14T09:17:08.322Z,12.00
2017-09-14T09:19:35.823Z,12.00
2017-09-14T09:22:03.547Z,12.00
2017-09-14T09:24:31.125Z,12.00
2017-09-14T09:26:58.644Z,12.00
2017-09-14T09:29:26.906Z,12.00
2017-09-14T09:31:54.431Z,12.00
2017-09-14T09:34:21.935Z,11.90
2017-09-14T09:36:50.226Z,11.80
2017-09-14T09:39:17.728Z,11.80
2017-09-14T09:41:45.259Z,11.80
2017-09-14T09:44:12.819Z,11.80
2017-09-14T09:46:40.367Z,11.80
2017-09-14T09:49:07.918Z,11.80
2017-09-14T09:51:36.301Z,11.80
2017-09-14T09:54:03.823Z,11.80
2017-09-14T09:56:31.322Z,11.80
2017-09-14T09:58:58.975Z,11.80
2017-09-14T10:01:26.482Z,11.80
2017-09-14T10:03:54.099Z,11.70
2017-09-14T10:06:21.603Z,11.80
2017-09-14T10:08:49.183Z,11.80
2017-09-14T10:11:17.108Z,11.80
2017-09-14T10:13:44.632Z,11.80
2017-09-14T10:16:12.919Z,11.80
2017-09-14T10:18:40.475Z,11.80
2017-09-14T10:21:08.058Z,11.80
2017-09-14T10:23:35.583Z,11.70
2017-09-14T10:26:03.881Z,11.70
2017-09-14T10:28:31.420Z,11.60
2017-09-14T10:30:59.400Z,11.60
2017-09-14T10:33:26.902Z,11.70
2017-09-14T10:35:54.420Z,11.70
2017-09-14T10:38:21.923Z,11.70
2017-09-14T10:40:49.543Z,11.80
2017-09-14T10:43:17.043Z,11.80
2017-09-14T10:45:44.558Z,11.80
2017-09-14T10:48:12.594Z,11.80
2017-09-14T10:50:40.876Z,11.80
2017-09-14T10:53:09.163Z,11.90
2017-09-14T10:55:36.687Z,11.90
2017-09-14T10:58:04.183Z,11.80
2017-09-14T11:00:31.727Z,11.80
2017-09-14T11:03:00.011Z,11.80
2017-09-14T11:05:28.299Z,11.80
2017-09-14T11:07:56.666Z,11.70
2017-09-14T11:10:24.198Z,11.60
2017-09-14T11:12:51.786Z,11.70
2017-09-14T11:15:19.351Z,11.70
2017-09-14T11:17:47.007Z,11.80
2017-09-14T11:20:14.567Z,11.80
2017-09-14T11:22:42.078Z,11.80
2017-09-14T11:25:09.574Z,11.90
2017-09-14T11:27:37.963Z,12.10
2017-09-14T11:30:05.862Z,12.10
2017-09-14T11:32:33.591Z,12.10
2017-09-14T11:35:01.107Z,12.10
2017-09-14T11:37:29.347Z,12.10
2017-09-14T11:39:56.859Z,12.00
2017-09-14T11:42:25.147Z,12.10
2017-09-14T11:44:53.414Z,12.10
2017-09-14T11:47:21.703Z,12.10
2017-09-14T11:49:49.375Z,12.10
2017-09-14T11:52:17.911Z,12.10
2017-09-14T11:54:45.426Z,12.10
2017-09-14T11:57:12.966Z,12.10
2017-09-14T11:59:40.627Z,12.10
2017-09-14T12:02:08.191Z,12.10
2017-09-14T12:04:36.267Z,12.30
2017-09-14T12:07:03.782Z,12.30
2017-09-14T12:09:31.451Z,12.40
2017-09-14T12:11:59.042Z,12.30
2017-09-14T12:14:26.599Z,12.30
2017-09-14T12:16:54.111Z,12.20
2017-09-14T12:19:21.635Z,12.20
2017-09-14T12:21:49.130Z,12.20
2017-09-14T12:24:16.735Z,12.30
2017-09-14T12:26:44.234Z,12.30
2017-09-14T12:29:11.751Z,12.30
2017-09-14T12:31:39.255Z,12.20
2017-09-14T12:34:06.872Z,12.20
2017-09-14T12:36:34.418Z,12.30
2017-09-14T12:39:02.799Z,12.40
2017-09-14T12:41:30.875Z,12.30
2017-09-14T12:43:58.444Z,12.40
2017-09-14T12:46:26.199Z,12.40
2017-09-14T12:48:53.759Z,12.40
2017-09-14T12:51:21.319Z,12.40
2017-09-14T12:53:48.834Z,12.30
2017-09-14T12:56:16.427Z,12.40
2017-09-14T12:58:44.548Z,12.50
2017-09-14T13:01:12.059Z,12.50
2017-09-14T13:03:40.307Z,12.80
2017-09-14T13:06:07.913Z,12.70
2017-09-14T13:08:35.415Z,12.60
2017-09-14T13:11:02.955Z,12.60
2017-09-14T13:13:30.467Z,12.70
2017-09-14T13:15:57.992Z,12.80
2017-09-14T13:18:25.487Z,13.00
2017-09-14T13:20:53.015Z,13.10
2017-09-14T13:23:20.510Z,13.10
2017-09-14T13:25:48.067Z,13.20
2017-09-14T13:28:15.568Z,13.30
2017-09-14T13:30:43.087Z,13.40
2017-09-14T13:33:10.634Z,13.50
2017-09-14T13:35:38.147Z,13.60
2017-09-14T13:38:05.648Z,13.70
2017-09-14T13:40:33.171Z,13.60
2017-09-14T13:43:00.666Z,13.60
2017-09-14T13:45:28.190Z,13.70
2017-09-14T13:47:56.475Z,14.00
2017-09-14T13:50:24.876Z,14.10
2017-09-14T13:52:53.134Z,14.10
2017-09-14T13:55:21.687Z,14.20
2017-09-14T13:57:49.211Z,14.20
2017-09-14T14:00:16.719Z,14.10
2017-09-14T14:02:44.233Z,14.20
2017-09-14T14:05:11.730Z,14.30
2017-09-14T14:07:39.251Z,14.30
2017-09-14T14:10:06.827Z,14.40
2017-09-14T14:12:34.344Z,14.40
2017-09-14T14:15:01.903Z,14.40
2017-09-14T14:17:29.428Z,14.50
2017-09-14T14:19:57.032Z,14.70
2017-09-14T14:22:24.687Z,14.80
2017-09-14T14:24:52.238Z,14.80
2017-09-14T14:27:19.757Z,14.80
2017-09-14T14:29:47.354Z,14.60
2017-09-14T14:32:14.914Z,14.40
2017-09-14T14:34:42.476Z,14.30
2017-09-14T14:37:09.990Z,14.30
2017-09-14T14:39:37.487Z,14.30
2017-09-14T14:42:06.687Z,14.60
2017-09-14T14:44:34.191Z,14.60
2017-09-14T14:47:01.723Z,15.00
2017-09-14T14:49:30.103Z,15.30
2017-09-14T14:51:57.598Z,15.20
2017-09-14T14:54:25.218Z,15.10
2017-09-14T14:56:52.758Z,15.20
2017-09-14T14:59:20.275Z,15.10
2017-09-14T15:01:47.781Z,15.40
2017-09-14T15:04:15.492Z,15.60
2017-09-14T15:06:43.729Z,15.80
2017-09-14T15:09:12.255Z,16.20
2017-09-14T15:11:40.671Z,17.10
2017-09-14T15:14:09.027Z,17.60
2017-09-14T15:16:37.328Z,17.50
2017-09-14T15:19:04.894Z,17.50
2017-09-14T15:21:33.183Z,17.50
2017-09-14T15:24:00.699Z,17.70
2017-09-14T15:26:28.963Z,20.50
2017-09-14T15:28:56.663Z,20.50
2017-09-14T15:31:24.161Z,21.90
2017-09-14T15:33:51.687Z,23.10
2017-09-14T15:36:19.182Z,23.60
2017-09-14T15:38:52.395Z,23.60
2017-09-14T15:41:26.187Z,22.60
2017-09-14T15:43:59.370Z,22.60
2017-09-14T15:46:26.880Z,20.60
2017-09-14T15:48:59.983Z,18.10
2017-09-14T15:51:33.254Z,17.10
2017-09-14T15:54:01.530Z,15.80
2017-09-14T15:56:29.811Z,15.50
2017-09-14T15:58:57.454Z,15.40
2017-09-14T16:01:26.448Z,14.80
2017-09-14T16:03:53.974Z,14.80
2017-09-14T16:06:21.475Z,14.50
2017-09-14T16:08:49.047Z,14.30
2017-09-14T16:11:16.546Z,14.00
2017-09-14T16:13:44.058Z,13.90
2017-09-14T16:16:11.554Z,13.90
2017-09-14T16:18:39.075Z,13.70
2017-09-14T16:21:06.579Z,13.70
2017-09-14T16:23:34.074Z,13.70
2017-09-14T16:26:02.464Z,13.60
2017-09-14T16:28:30.128Z,13.60
2017-09-14T16:30:57.647Z,13.60
2017-09-14T16:33:26.071Z,13.50
2017-09-14T16:35:53.624Z,13.40
2017-09-14T16:38:21.527Z,13.30
2017-09-14T16:40:49.151Z,13.30
2017-09-14T16:43:16.702Z,13.30
2017-09-14T16:45:44.999Z,13.30
2017-09-14T16:48:12.499Z,13.20
2017-09-14T16:50:40.010Z,13.30
2017-09-14T16:53:07.515Z,13.30
2017-09-14T16:55:35.199Z,13.20
2017-09-14T16:58:03.603Z,13.10
2017-09-14T17:00:31.119Z,13.10
2017-09-14T17:02:58.719Z,13.10
2017-09-14T17:05:26.242Z,13.00
2017-09-14T17:07:53.739Z,13.00
2017-09-14T17:10:21.307Z,13.00
2017-09-14T17:12:48.819Z,13.00
2017-09-14T17:15:16.406Z,12.90
2017-09-14T17:17:43.923Z,12.90
2017-09-14T17:20:11.427Z,12.80
2017-09-14T17:22:38.938Z,12.80
2017-09-14T17:25:06.478Z,12.80
2017-09-14T17:27:34.062Z,12.70
2017-09-14T17:30:01.663Z,12.70
2017-09-14T17:32:29.183Z,12.60
2017-09-14T17:34:56.762Z,12.60
2017-09-14T17:37:25.054Z,12.50
2017-09-14T17:39:52.555Z,12.50
2017-09-14T17:42:20.075Z,12.50
2017-09-14T17:44:47.575Z,12.40
2017-09-14T17:47:15.182Z,12.40
2017-09-14T17:49:43.447Z,12.30
2017-09-14T17:52:11.739Z,12.30
2017-09-14T17:54:39.251Z,12.30
2017-09-14T17:57:07.707Z,12.30
2017-09-14T17:59:35.240Z,12.20
2017-09-14T18:02:02.800Z,12.20
2017-09-14T18:04:30.323Z,12.20
2017-09-14T18:06:57.827Z,12.20
2017-09-14T18:09:25.372Z,12.20
2017-09-14T18:11:52.936Z,12.20
2017-09-14T18:14:20.457Z,12.10
2017-09-14T18:16:47.959Z,12.10
2017-09-14T18:19:16.122Z,12.10
2017-09-14T18:21:43.646Z,12.10
2017-09-14T18:24:11.158Z,12.10
2017-09-14T18:26:38.654Z,12.00
2017-09-14T18:29:06.248Z,12.00
2017-09-14T18:31:33.751Z,12.00
2017-09-14T18:34:01.272Z,12.00
2017-09-14T18:36:28.773Z,12.00
2017-09-14T18:38:56.377Z,12.00
2017-09-14T18:41:24.647Z,11.90
2017-09-14T18:43:53.035Z,11.80
2017-09-14T18:46:20.535Z,11.80
2017-09-14T18:48:48.041Z,11.80
2017-09-14T18:51:16.323Z,11.90
2017-09-14T18:53:44.612Z,11.90
2017-09-14T18:56:12.134Z,11.90
2017-09-14T18:58:39.631Z,11.90
2017-09-14T19:01:07.143Z,11.90
2017-09-14T19:03:34.655Z,12.00
2017-09-14T19:06:02.204Z,12.00
2017-09-14T19:08:29.712Z,12.00
2017-09-14T19:10:58.117Z,12.00
2017-09-14T19:13:26.382Z,11.90
2017-09-14T19:15:53.900Z,11.90
2017-09-14T19:18:21.403Z,11.90
2017-09-14T19:20:49.743Z,11.90
2017-09-14T19:23:17.242Z,11.90
2017-09-14T19:25:45.530Z,11.90
2017-09-14T19:28:13.199Z,11.90
2017-09-14T19:30:40.768Z,11.90
2017-09-14T19:33:08.282Z,11.90
2017-09-14T19:35:36.595Z,11.90
2017-09-14T19:38:04.150Z,11.90
2017-09-14T19:40:31.651Z,11.90
2017-09-14T19:42:59.166Z,11.90
2017-09-14T19:45:27.519Z,11.90
2017-09-14T19:47:55.817Z,11.90
2017-09-14T19:50:23.320Z,11.90
2017-09-14T19:52:50.930Z,11.90
2017-09-14T19:55:20.230Z,11.80
2017-09-14T19:57:48.506Z,11.70
2017-09-14T20:00:16.791Z,11.60
2017-09-14T20:02:44.343Z,11.60
2017-09-14T20:05:11.843Z,11.60
2017-09-14T20:07:39.458Z,11.60
2017-09-14T20:10:07.735Z,11.60
2017-09-14T20:12:35.367Z,11.60
2017-09-14T20:15:02.963Z,11.60
2017-09-14T20:17:30.557Z,11.60
2017-09-14T20:19:58.815Z,11.70
2017-09-14T20:22:26.391Z,11.60
2017-09-14T20:24:53.895Z,11.60
2017-09-14T20:27:22.179Z,11.60
2017-09-14T20:29:50.443Z,11.60
2017-09-14T20:32:18.738Z,11.70
2017-09-14T20:34:46.294Z,11.70
2017-09-14T20:37:13.816Z,11.60
2017-09-14T20:39:41.422Z,11.70
2017-09-14T20:42:08.978Z,11.70
2017-09-14T20:44:36.539Z,11.60
2017-09-14T20:47:04.051Z,11.60
2017-09-14T20:49:31.547Z,11.60
2017-09-14T20:51:59.113Z,11.60
2017-09-14T20:54:27.226Z,11.70
2017-09-14T20:56:55.439Z,11.60
2017-09-14T20:59:23.735Z,11.60
2017-09-14T21:01:51.286Z,11.60
2017-09-14T21:04:18.807Z,11.60
2017-09-14T21:06:46.406Z,11.60
2017-09-14T21:09:14.691Z,11.60
2017-09-14T21:11:42.238Z,11.60
2017-09-14T21:14:10.619Z,11.70
2017-09-14T21:16:38.116Z,11.70
2017-09-14T21:19:05.630Z,11.60
2017-09-14T21:21:33.915Z,11.60
2017-09-14T21:24:01.476Z,11.60
2017-09-14T21:26:29.026Z,11.60
2017-09-14T21:28:58.326Z,11.60
2017-09-14T21:31:25.857Z,11.60
2017-09-14T21:33:53.395Z,11.60
2017-09-14T21:36:20.900Z,11.60
2017-09-14T21:38:48.416Z,11.50
2017-09-14T21:41:15.930Z,11.60
2017-09-14T21:43:43.426Z,11.60
2017-09-14T21:46:11.047Z,11.60
2017-09-14T21:48:38.554Z,11.60
2017-09-14T21:51:06.080Z,11.60
2017-09-14T21:53:33.586Z,11.60
2017-09-14T21:56:01.102Z,11.60
2017-09-14T21:58:28.973Z,11.60
2017-09-14T22:00:56.496Z,11.60
2017-09-14T22:03:24.050Z,11.60
2017-09-14T22:05:51.614Z,11.60
2017-09-14T22:08:19.120Z,11.60
2017-09-14T22:10:46.640Z,11.60
2017-09-14T22:13:14.187Z,11.60
2017-09-14T22:15:42.562Z,11.60
2017-09-14T22:18:10.059Z,11.70
2017-09-14T22:20:37.579Z,11.70
2017-09-14T22:23:05.142Z,11.70
2017-09-14T22:25:32.698Z,11.70
2017-09-14T22:28:00.205Z,11.70
2017-09-14T22:30:27.722Z,11.70
2017-09-14T22:32:55.270Z,11.60
2017-09-14T22:35:22.809Z,11.70
2017-09-14T22:37:51.106Z,11.70
2017-09-14T22:40:18.662Z,11.60
2017-09-14T22:42:46.956Z,11.70
2017-09-14T22:45:14.507Z,11.60
2017-09-14T22:47:42.058Z,11.70
2017-09-14T22:50:09.623Z,11.70
2017-09-14T22:52:37.143Z,11.70
2017-09-14T22:55:04.648Z,11.70
2017-09-14T22:57:32.163Z,11.70
2017-09-14T22:59:59.751Z,11.70
2017-09-14T23:02:27.267Z,11.70
2017-09-14T23:04:55.590Z,11.70
2017-09-14T23:07:23.140Z,11.70
2017-09-14T23:09:51.402Z,11.80
2017-09-14T23:12:19.714Z,11.80
2017-09-14T23:14:47.652Z,11.80
2017-09-14T23:17:15.938Z,11.80
2017-09-14T23:19:44.214Z,11.80
2017-09-14T23:22:11.779Z,11.80
2017-09-14T23:24:39.343Z,11.70
2017-09-14T23:27:07.628Z,11.70
2017-09-14T23:29:35.127Z,11.70
2017-09-14T23:32:02.635Z,11.70
2017-09-14T23:34:30.156Z,11.60
2017-09-14T23:36:57.861Z,11.60
2017-09-14T23:39:25.382Z,11.60
2017-09-14T23:41:52.963Z,11.60
2017-09-14T23:44:20.527Z,11.50
2017-09-14T23:46:48.676Z,11.50
2017-09-14T23:49:16.974Z,11.50
2017-09-14T23:51:44.535Z,11.40
2017-09-14T23:54:12.863Z,11.40
2017-09-14T23:56:40.466Z,11.40
2017-09-14T23:59:08.751Z,11.30
